createdAt,value
2022-08-17T00:00:52.019Z,2.05
2022-08-17T00:03:27.802Z,1.80
2022-08-17T00:06:06.360Z,1.80
2022-08-17T00:08:42.225Z,1.05
2022-08-17T00:11:17.624Z,1.63
2022-08-17T00:13:55.118Z,1.60
2022-08-17T00:16:50.489Z,1.47
2022-08-17T00:19:26.319Z,1.70
2022-08-17T00:22:32.785Z,1.90
2022-08-17T00:24:53.074Z,1.50
2022-08-17T00:27:25.432Z,2.10
2022-08-17T00:29:57.860Z,1.77
2022-08-17T00:33:15.855Z,2.65
2022-08-17T00:35:29.042Z,2.10
2022-08-17T00:38:03.455Z,1.38
2022-08-17T00:40:40.654Z,1.17
2022-08-17T00:43:21.186Z,1.63
2022-08-17T00:45:54.079Z,1.60
2022-08-17T00:48:29.875Z,1.77
2022-08-17T00:51:07.893Z,1.58
2022-08-17T00:53:44.092Z,1.83
2022-08-17T00:56:23.966Z,1.85
2022-08-17T00:58:56.787Z,1.67
2022-08-17T01:01:30.023Z,1.67
2022-08-17T01:04:04.661Z,1.63
2022-08-17T01:06:37.494Z,1.90
2022-08-17T01:09:09.936Z,1.70
2022-08-17T01:11:43.855Z,1.98
2022-08-17T01:14:16.236Z,1.58
2022-08-17T01:16:49.884Z,1.48
2022-08-17T01:19:25.532Z,1.65
2022-08-17T01:22:03.355Z,1.60
2022-08-17T01:24:38.999Z,1.50
2022-08-17T01:27:13.042Z,1.25
2022-08-17T01:29:50.123Z,1.35
2022-08-17T01:32:22.530Z,1.35
2022-08-17T01:34:55.283Z,1.52
2022-08-17T01:37:32.288Z,1.58
2022-08-17T01:40:13.227Z,0.93
2022-08-17T01:42:50.781Z,1.45
2022-08-17T01:45:26.398Z,1.80
2022-08-17T01:47:59.671Z,1.35
2022-08-17T01:50:34.706Z,1.60
2022-08-17T01:53:10.987Z,1.42
2022-08-17T01:55:48.899Z,1.95
2022-08-17T01:58:21.936Z,1.40
2022-08-17T02:01:00.982Z,1.48
2022-08-17T02:03:35.799Z,1.60
2022-08-17T02:06:27.284Z,1.40
2022-08-17T02:09:03.402Z,1.30
2022-08-17T02:11:37.761Z,1.58
2022-08-17T02:14:11.223Z,1.77
2022-08-17T02:16:44.002Z,1.33
2022-08-17T02:19:17.463Z,1.38
2022-08-17T02:21:52.926Z,1.38
2022-08-17T02:24:58.428Z,1.60
2022-08-17T02:27:22.488Z,1.67
2022-08-17T02:29:55.000Z,2.05
2022-08-17T02:32:28.605Z,0.90
2022-08-17T02:35:02.185Z,1.58
2022-08-17T02:37:35.039Z,1.45
2022-08-17T02:40:08.995Z,1.02
2022-08-17T02:42:44.890Z,2.55
2022-08-17T02:45:20.562Z,1.23
2022-08-17T02:47:53.607Z,2.25
2022-08-17T02:50:26.273Z,1.40
2022-08-17T02:53:02.214Z,1.30
2022-08-17T02:55:37.827Z,1.35
2022-08-17T02:58:11.528Z,1.30
2022-08-17T03:00:47.432Z,1.38
2022-08-17T03:03:19.995Z,1.55
2022-08-17T03:05:52.711Z,1.88
2022-08-17T03:08:25.246Z,1.42
2022-08-17T03:10:57.750Z,3.13
2022-08-17T03:13:30.815Z,7.00
2022-08-17T03:16:03.718Z,5.10
2022-08-17T03:18:36.483Z,6.20
2022-08-17T03:21:09.033Z,6.00
2022-08-17T03:23:41.568Z,5.53
2022-08-17T03:26:15.490Z,5.93
2022-08-17T03:28:49.289Z,4.28
2022-08-17T03:31:21.736Z,3.45
2022-08-17T03:33:54.284Z,2.58
2022-08-17T03:36:26.793Z,2.42
2022-08-17T03:38:59.188Z,1.40
2022-08-17T03:41:31.791Z,1.83
2022-08-17T03:44:04.860Z,1.42
2022-08-17T03:46:55.267Z,1.38
2022-08-17T03:49:45.606Z,1.92
2022-08-17T03:52:36.039Z,1.52
2022-08-17T03:55:30.756Z,1.70
2022-08-17T03:58:08.860Z,1.48
2022-08-17T04:00:44.608Z,1.58
2022-08-17T04:03:17.664Z,2.08
2022-08-17T04:05:50.054Z,2.00
2022-08-17T04:08:22.591Z,1.85
2022-08-17T04:10:55.583Z,1.27
2022-08-17T04:13:27.995Z,1.30
2022-08-17T04:16:01.274Z,1.60
2022-08-17T04:18:34.165Z,2.15
2022-08-17T04:21:08.631Z,1.35
2022-08-17T04:23:41.084Z,1.65
2022-08-17T04:26:53.761Z,1.83
2022-08-17T04:29:06.513Z,1.85
2022-08-17T04:31:39.583Z,3.25
2022-08-17T04:34:12.091Z,1.60
2022-08-17T04:36:50.312Z,1.65
2022-08-17T04:39:25.506Z,1.95
2022-08-17T04:42:06.437Z,2.05
2022-08-17T04:44:38.886Z,2.20
2022-08-17T04:47:11.927Z,2.10
2022-08-17T04:49:45.623Z,1.65
2022-08-17T04:52:32.263Z,2.45
2022-08-17T04:55:14.884Z,2.35
2022-08-17T04:57:47.256Z,2.00
2022-08-17T05:00:19.945Z,1.95
2022-08-17T05:02:55.124Z,2.03
2022-08-17T05:05:30.123Z,2.38
2022-08-17T05:08:05.313Z,1.70
2022-08-17T05:10:38.319Z,1.77
2022-08-17T05:13:20.527Z,2.15
2022-08-17T05:15:56.189Z,2.08
2022-08-17T05:18:29.960Z,2.22
2022-08-17T05:21:02.555Z,1.83
2022-08-17T05:23:43.049Z,2.55
2022-08-17T05:26:26.269Z,2.20
2022-08-17T05:29:00.615Z,1.63
2022-08-17T05:31:35.301Z,2.40
2022-08-17T05:34:08.282Z,1.48
2022-08-17T05:36:44.143Z,2.13
2022-08-17T05:39:17.432Z,1.85
2022-08-17T05:41:49.899Z,1.52
2022-08-17T05:44:22.286Z,1.85
2022-08-17T05:46:55.646Z,2.72
2022-08-17T05:49:28.879Z,1.60
2022-08-17T05:52:19.810Z,2.15
2022-08-17T05:55:05.700Z,1.75
2022-08-17T05:57:54.112Z,1.90
2022-08-17T06:00:36.855Z,1.67
2022-08-17T06:03:26.935Z,1.30
2022-08-17T06:06:12.702Z,2.47
2022-08-17T06:08:53.187Z,1.38
2022-08-17T06:11:36.681Z,1.83
2022-08-17T06:14:31.475Z,2.13
2022-08-17T06:17:08.513Z,1.27
2022-08-17T06:19:43.578Z,1.50
2022-08-17T06:22:20.047Z,2.30
2022-08-17T06:24:56.547Z,1.60
2022-08-17T06:27:35.394Z,1.75
2022-08-17T06:30:12.474Z,1.10
2022-08-17T06:32:47.451Z,1.80
2022-08-17T06:35:37.499Z,1.67
2022-08-17T06:38:37.508Z,1.95
2022-08-17T06:41:18.150Z,1.95
2022-08-17T06:46:34.105Z,1.50
2022-08-17T06:49:21.060Z,1.80
2022-08-17T06:52:00.817Z,1.40
2022-08-17T06:54:42.719Z,1.65
2022-08-17T06:57:19.448Z,1.90
2022-08-17T06:59:57.279Z,1.10
2022-08-17T07:03:02.331Z,1.85
2022-08-17T07:05:39.232Z,1.77
2022-08-17T07:08:19.473Z,2.03
2022-08-17T07:10:55.564Z,2.00
2022-08-17T07:13:37.494Z,2.03
2022-08-17T07:16:19.611Z,2.10
2022-08-17T07:18:53.102Z,1.33
2022-08-17T07:21:40.259Z,1.63
2022-08-17T07:24:32.840Z,1.45
2022-08-17T07:27:10.684Z,1.38
2022-08-17T07:29:49.835Z,1.80
2022-08-17T07:32:25.728Z,1.67
2022-08-17T07:35:17.951Z,1.60
2022-08-17T07:38:25.859Z,1.65
2022-08-17T07:41:03.338Z,1.88
2022-08-17T07:43:44.896Z,1.65
2022-08-17T07:46:38.185Z,1.42
2022-08-17T07:49:20.987Z,1.85
2022-08-17T07:52:00.521Z,1.77
2022-08-17T07:54:53.096Z,2.00
2022-08-17T07:57:35.786Z,1.63
2022-08-17T08:00:24.355Z,2.03
2022-08-17T08:03:22.290Z,2.25
2022-08-17T08:06:00.609Z,1.83
2022-08-17T08:08:43.385Z,1.95
2022-08-17T08:11:29.460Z,2.03
2022-08-17T08:14:28.700Z,2.35
2022-08-17T08:17:04.899Z,2.33
2022-08-17T08:19:38.274Z,2.00
2022-08-17T08:22:17.848Z,2.00
2022-08-17T08:25:02.291Z,2.25
2022-08-17T08:27:44.204Z,2.45
2022-08-17T08:30:20.715Z,2.10
2022-08-17T08:33:31.332Z,2.28
2022-08-17T08:37:12.551Z,1.80
2022-08-17T08:39:15.718Z,1.92
2022-08-17T08:41:58.204Z,1.95
2022-08-17T08:45:00.350Z,2.42
2022-08-17T08:48:05.731Z,2.17
2022-08-17T08:50:48.591Z,1.40
2022-08-17T08:53:34.282Z,2.03
2022-08-17T08:56:13.968Z,1.42
2022-08-17T08:58:53.724Z,1.33
2022-08-17T09:01:37.339Z,1.55
2022-08-17T09:04:37.278Z,1.17
2022-08-17T09:07:34.010Z,1.67
2022-08-17T09:10:17.858Z,1.17
2022-08-17T09:13:09.501Z,1.60
2022-08-17T09:15:47.035Z,1.20
2022-08-17T09:19:01.517Z,1.75
2022-08-17T09:21:25.619Z,1.20
2022-08-17T09:24:05.285Z,1.70
2022-08-17T09:26:43.792Z,1.55
2022-08-17T09:29:23.740Z,1.60
2022-08-17T09:31:59.036Z,1.45
2022-08-17T09:34:35.131Z,1.75
2022-08-17T09:37:19.590Z,1.52
2022-08-17T09:40:07.154Z,1.65
2022-08-17T09:42:47.317Z,1.50
2022-08-17T09:45:35.292Z,1.63
2022-08-17T09:48:14.572Z,1.52
2022-08-17T09:51:05.821Z,1.55
2022-08-17T09:53:39.593Z,1.77
2022-08-17T09:56:41.041Z,1.40
2022-08-17T09:59:38.165Z,1.30
2022-08-17T10:02:42.420Z,1.48
2022-08-17T10:05:21.631Z,1.63
2022-08-17T10:08:01.562Z,1.52
2022-08-17T10:10:52.332Z,1.58
2022-08-17T10:13:38.698Z,1.50
2022-08-17T10:16:21.981Z,1.63
2022-08-17T10:19:04.769Z,1.40
2022-08-17T10:22:00.764Z,1.10
2022-08-17T10:25:21.197Z,1.40
2022-08-17T10:27:52.136Z,1.30
2022-08-17T10:30:28.978Z,1.40
2022-08-17T10:33:05.071Z,1.35
2022-08-17T10:35:45.113Z,1.42
2022-08-17T10:38:36.397Z,1.90
2022-08-17T10:41:23.810Z,1.67
2022-08-17T10:44:38.660Z,1.52
2022-08-17T10:47:06.843Z,1.88
2022-08-17T10:49:44.988Z,1.48
2022-08-17T10:52:47.919Z,1.70
2022-08-17T10:55:20.521Z,1.52
2022-08-17T10:58:20.221Z,1.33
2022-08-17T11:00:58.295Z,1.80
2022-08-17T11:03:32.243Z,1.50
2022-08-17T11:06:14.044Z,1.60
2022-08-17T11:09:25.580Z,1.98
2022-08-17T11:12:23.790Z,1.30
2022-08-17T11:15:09.753Z,1.60
2022-08-17T11:18:05.283Z,1.38
2022-08-17T11:21:03.943Z,1.50
2022-08-17T11:23:54.229Z,1.70
2022-08-17T11:26:31.292Z,1.13
2022-08-17T11:29:08.343Z,1.98
2022-08-17T11:31:44.032Z,1.70
2022-08-17T11:34:19.377Z,1.90
2022-08-17T11:37:11.455Z,1.88
2022-08-17T11:40:20.054Z,1.83
2022-08-17T11:43:07.514Z,1.70
2022-08-17T11:46:08.567Z,1.45
2022-08-17T11:49:05.842Z,1.50
2022-08-17T11:52:09.492Z,2.33
2022-08-17T11:54:45.493Z,1.58
2022-08-17T11:57:54.051Z,1.70
2022-08-17T12:00:57.741Z,1.73
2022-08-17T12:03:54.107Z,1.65
2022-08-17T12:06:43.584Z,2.10
2022-08-17T12:09:24.166Z,1.60
2022-08-17T12:12:13.461Z,1.52
2022-08-17T12:15:10.506Z,1.38
2022-08-17T12:17:51.263Z,2.17
2022-08-17T12:20:29.647Z,2.30
2022-08-17T12:23:09.334Z,2.30
2022-08-17T12:25:48.616Z,2.25
2022-08-17T12:28:24.419Z,2.55
2022-08-17T12:31:00.796Z,2.90
2022-08-17T12:33:36.429Z,1.98
2022-08-17T12:36:14.579Z,2.42
2022-08-17T12:38:51.889Z,2.15
2022-08-17T12:41:33.932Z,2.25
2022-08-17T12:44:13.355Z,2.63
2022-08-17T12:46:53.335Z,2.78
2022-08-17T12:49:32.659Z,1.92
2022-08-17T12:52:13.413Z,2.30
2022-08-17T12:54:50.851Z,2.47
2022-08-17T12:57:27.021Z,2.10
2022-08-17T13:00:07.028Z,2.55
2022-08-17T13:02:44.610Z,2.03
2022-08-17T13:05:23.697Z,1.90
2022-08-17T13:10:33.266Z,2.25
2022-08-17T13:13:21.853Z,2.10
2022-08-17T13:15:56.983Z,2.40
2022-08-17T13:18:40.425Z,2.20
2022-08-17T13:21:25.987Z,1.60
2022-08-17T13:24:00.716Z,2.00
2022-08-17T13:26:36.529Z,1.48
2022-08-17T13:29:23.315Z,1.65
2022-08-17T13:32:13.828Z,1.73
2022-08-17T13:35:12.362Z,1.75
2022-08-17T13:37:55.315Z,1.77
2022-08-17T13:40:36.785Z,1.60
2022-08-17T13:43:10.588Z,1.77
2022-08-17T13:45:50.878Z,2.15
2022-08-17T13:48:27.662Z,1.73
2022-08-17T13:51:13.685Z,1.88
2022-08-17T13:54:02.398Z,2.20
2022-08-17T13:56:46.845Z,1.90
2022-08-17T13:59:55.126Z,2.35
2022-08-17T14:02:28.924Z,2.05
2022-08-17T14:05:01.804Z,2.00
2022-08-17T14:07:39.851Z,1.70
2022-08-17T14:10:14.716Z,2.03
2022-08-17T14:12:47.442Z,2.58
2022-08-17T14:15:23.782Z,2.33
2022-08-17T14:18:19.035Z,1.58
2022-08-17T14:21:11.684Z,1.77
2022-08-17T14:23:54.468Z,1.58
2022-08-17T14:26:27.202Z,1.90
2022-08-17T14:28:59.619Z,1.50
2022-08-17T14:31:37.417Z,1.60
2022-08-17T14:34:10.856Z,1.95
2022-08-17T14:36:48.214Z,2.10
2022-08-17T14:39:21.127Z,1.77
2022-08-17T14:41:54.746Z,2.10
2022-08-17T14:44:27.230Z,1.80
2022-08-17T14:46:59.623Z,2.05
2022-08-17T14:49:33.079Z,1.67
2022-08-17T14:52:05.800Z,2.13
2022-08-17T14:54:42.434Z,1.83
2022-08-17T14:57:33.102Z,1.58
2022-08-17T15:00:08.730Z,2.20
2022-08-17T15:02:47.487Z,1.42
2022-08-17T15:05:21.887Z,1.35
2022-08-17T15:07:57.116Z,1.25
2022-08-17T15:10:30.809Z,1.33
2022-08-17T15:13:03.619Z,1.88
2022-08-17T15:15:36.032Z,2.13
2022-08-17T15:18:08.604Z,1.40
2022-08-17T15:20:42.188Z,1.42
2022-08-17T15:23:17.483Z,1.45
2022-08-17T15:25:52.100Z,1.90
2022-08-17T15:28:24.647Z,1.83
2022-08-17T15:30:57.118Z,2.08
2022-08-17T15:33:30.512Z,1.48
2022-08-17T15:36:06.227Z,1.48
2022-08-17T15:38:38.868Z,1.27
2022-08-17T15:41:14.630Z,0.98
2022-08-17T15:43:49.243Z,1.40
2022-08-17T15:46:24.951Z,1.65
2022-08-17T15:48:58.978Z,2.10
2022-08-17T15:51:34.026Z,1.55
2022-08-17T15:54:19.404Z,1.75
2022-08-17T15:56:55.080Z,1.65
2022-08-17T15:59:29.624Z,1.38
2022-08-17T16:03:16.010Z,1.70
2022-08-17T16:04:56.533Z,1.52
2022-08-17T16:07:30.550Z,1.33
2022-08-17T16:10:05.461Z,1.20
2022-08-17T16:12:38.115Z,1.63
2022-08-17T16:15:11.475Z,1.40
2022-08-17T16:17:43.976Z,1.58
2022-08-17T16:20:20.713Z,1.30
2022-08-17T16:22:55.159Z,1.23
2022-08-17T16:25:47.230Z,1.38
2022-08-17T16:28:35.849Z,1.13
2022-08-17T16:31:08.785Z,1.30
2022-08-17T16:33:42.354Z,1.02
2022-08-17T16:36:34.728Z,1.38
2022-08-17T16:39:07.828Z,1.67
2022-08-17T16:41:44.269Z,1.73
2022-08-17T16:44:18.796Z,1.58
2022-08-17T16:46:51.261Z,1.83
2022-08-17T16:49:37.364Z,1.50
2022-08-17T16:52:11.042Z,1.40
2022-08-17T16:54:46.211Z,0.90
2022-08-17T16:57:18.911Z,1.98
2022-08-17T16:59:52.882Z,1.63
2022-08-17T17:02:28.906Z,1.70
2022-08-17T17:05:06.318Z,1.77
2022-08-17T17:07:52.671Z,2.20
2022-08-17T17:10:32.595Z,1.55
2022-08-17T17:13:12.927Z,1.27
2022-08-17T17:15:52.888Z,1.92
2022-08-17T17:18:37.544Z,1.52
2022-08-17T17:21:13.453Z,1.67
2022-08-17T17:23:54.844Z,1.38
2022-08-17T17:26:40.319Z,4.20
2022-08-17T17:29:27.928Z,2.15
2022-08-17T17:32:05.365Z,2.05
2022-08-17T17:34:41.009Z,2.72
2022-08-17T17:37:19.869Z,2.30
2022-08-17T17:39:55.579Z,1.90
2022-08-17T17:42:31.814Z,1.55
2022-08-17T17:45:10.338Z,1.98
2022-08-17T17:47:43.298Z,1.88
2022-08-17T17:50:17.728Z,1.55
2022-08-17T17:53:01.481Z,1.50
2022-08-17T17:55:46.429Z,1.73
2022-08-17T17:58:36.280Z,1.48
2022-08-17T18:01:25.223Z,1.65
2022-08-17T18:04:20.210Z,1.42
2022-08-17T18:07:10.022Z,1.90
2022-08-17T18:10:01.231Z,1.23
2022-08-17T18:12:40.300Z,1.65
2022-08-17T18:15:24.828Z,1.50
2022-08-17T18:18:32.440Z,1.88
2022-08-17T18:21:14.889Z,1.60
2022-08-17T18:23:53.820Z,1.30
2022-08-17T18:26:44.975Z,1.30
2022-08-17T18:29:31.239Z,1.75
2022-08-17T18:32:35.109Z,1.60
2022-08-17T18:35:29.830Z,1.60
2022-08-17T18:38:22.147Z,2.35
2022-08-17T18:41:01.088Z,1.25
2022-08-17T18:43:44.446Z,1.48
2022-08-17T18:46:29.873Z,1.58
2022-08-17T18:49:06.925Z,1.50
2022-08-17T18:51:43.304Z,1.77
2022-08-17T18:54:20.288Z,1.50
2022-08-17T18:56:54.827Z,1.55
2022-08-17T18:59:33.024Z,1.73
2022-08-17T19:02:45.147Z,1.55
2022-08-17T19:05:35.572Z,2.00
2022-08-17T19:08:18.446Z,1.60
2022-08-17T19:10:55.135Z,1.85
2022-08-17T19:13:31.561Z,1.88
2022-08-17T19:16:15.047Z,1.83
2022-08-17T19:18:52.514Z,1.75
2022-08-17T19:21:33.976Z,1.98
2022-08-17T19:24:11.915Z,1.50
2022-08-17T19:26:54.308Z,1.42
2022-08-17T19:29:36.732Z,1.42
2022-08-17T19:32:12.155Z,1.88
2022-08-17T19:34:44.773Z,1.58
2022-08-17T19:37:29.543Z,1.33
2022-08-17T19:40:50.583Z,1.25
2022-08-17T19:43:23.237Z,1.92
2022-08-17T19:46:05.285Z,2.85
2022-08-17T19:48:46.079Z,1.63
2022-08-17T19:51:30.346Z,1.60
2022-08-17T19:54:14.406Z,1.98
2022-08-17T19:56:53.808Z,1.60
2022-08-17T20:02:20.359Z,1.52
2022-08-17T20:04:58.571Z,1.67
2022-08-17T20:07:50.915Z,1.33
2022-08-17T20:10:35.781Z,1.80
2022-08-17T20:13:11.175Z,1.98
2022-08-17T20:15:43.796Z,1.50
2022-08-17T20:18:22.563Z,1.27
2022-08-17T20:20:58.831Z,1.58
2022-08-17T20:23:48.347Z,1.77
2022-08-17T20:26:26.260Z,1.42
2022-08-17T20:29:19.285Z,1.67
2022-08-17T20:32:20.880Z,1.85
2022-08-17T20:35:19.414Z,1.65
2022-08-17T20:37:58.189Z,1.23
2022-08-17T20:40:34.476Z,1.48
2022-08-17T20:43:45.312Z,1.63
2022-08-17T20:46:29.684Z,2.00
2022-08-17T20:49:17.718Z,1.50
2022-08-17T20:52:02.509Z,1.50
2022-08-17T20:54:45.972Z,1.40
2022-08-17T20:57:44.881Z,1.80
2022-08-17T21:00:41.885Z,1.65
2022-08-17T21:03:51.162Z,1.27
2022-08-17T21:06:25.611Z,1.55
2022-08-17T21:09:18.988Z,1.40
2022-08-17T21:12:04.379Z,1.88
2022-08-17T21:15:02.578Z,1.70
2022-08-17T21:17:48.318Z,1.55
2022-08-17T21:20:32.632Z,1.33
2022-08-17T21:23:37.053Z,1.52
2022-08-17T21:26:21.133Z,1.50
2022-08-17T21:29:30.372Z,1.60
2022-08-17T21:32:18.495Z,1.90
2022-08-17T21:35:28.631Z,1.38
2022-08-17T21:38:04.212Z,2.00
2022-08-17T21:40:36.864Z,2.17
2022-08-17T21:43:22.780Z,2.05
2022-08-17T21:46:00.130Z,1.75
2022-08-17T21:48:42.060Z,1.95
2022-08-17T21:51:19.260Z,1.52
2022-08-17T21:53:55.935Z,2.72
2022-08-17T21:56:32.736Z,1.42
2022-08-17T21:59:08.141Z,1.58
2022-08-17T22:01:42.330Z,1.65
2022-08-17T22:04:20.343Z,1.70
2022-08-17T22:06:57.386Z,2.47
2022-08-17T22:09:33.747Z,1.50
2022-08-17T22:12:10.611Z,1.70
2022-08-17T22:14:53.211Z,1.90
2022-08-17T22:17:28.822Z,1.80
2022-08-17T22:20:06.946Z,1.73
2022-08-17T22:23:19.759Z,1.42
2022-08-17T22:26:01.375Z,1.67
2022-08-17T22:28:40.816Z,1.30
2022-08-17T22:33:49.524Z,1.83
2022-08-17T22:36:29.054Z,1.40
2022-08-17T22:39:40.146Z,2.45
2022-08-17T22:42:14.983Z,1.55
2022-08-17T22:44:50.429Z,1.55
2022-08-17T22:47:38.025Z,1.80
2022-08-17T22:50:21.066Z,1.67
2022-08-17T22:53:18.081Z,1.98
2022-08-17T22:56:10.701Z,1.65
2022-08-17T22:59:09.113Z,1.35
2022-08-17T23:01:44.624Z,1.77
2022-08-17T23:04:32.039Z,1.90
2022-08-17T23:07:05.413Z,1.38
2022-08-17T23:09:38.220Z,1.90
2022-08-17T23:12:15.335Z,1.83
2022-08-17T23:14:50.722Z,1.83
2022-08-17T23:17:23.712Z,1.90
2022-08-17T23:19:56.403Z,1.60
2022-08-17T23:22:29.109Z,1.23
2022-08-17T23:25:02.305Z,0.90
2022-08-17T23:27:34.779Z,1.88
2022-08-17T23:30:10.291Z,2.15
2022-08-17T23:32:53.250Z,1.67
2022-08-17T23:35:40.166Z,1.30
2022-08-17T23:38:13.632Z,1.80
2022-08-17T23:40:46.046Z,1.40
2022-08-17T23:43:23.881Z,1.75
2022-08-17T23:45:59.790Z,1.65
2022-08-17T23:48:36.708Z,2.20
2022-08-17T23:51:14.152Z,1.83
2022-08-17T23:53:49.943Z,1.55
2022-08-17T23:56:23.902Z,3.05
2022-08-17T23:58:57.383Z,2.00
